Aviation Digital Data Service (ADDS)

Output produced by METARs form (0336 UTC 06 December 2019)
found at http://www.aviationweather.gov/metar/data/
 
LECO 060330Z AUTO VRB01KT 6000 NSC 07/07 Q1022
TAF LECO 060200Z 0603/0703 VRB05KT 8000 SCT025 TX13/0614Z TN05/0605Z 
     TEMPO 0603/0609 3000 BR 
     PROB40 
     TEMPO 0603/0609 0350 FG VV001 
     PROB40 
     TEMPO 0603/0609 0150 FG VV001 
     PROB40 
     TEMPO 0621/0703 3000 -RADZ BKN010 BKN014
       
LEAB 060300Z 10004KT 9999 BKN018 08/07 Q1022 NOSIG
TAF LEAB 060200Z 0603/0612 09007KT 9999 SCT025 BKN040 
     PROB40 
     TEMPO 0603/0611 2500 BR BKN014 
     PROB30 
     TEMPO 0603/0610 0500 FG BKN002
       
TAF LERI 060200Z 0603/0612 VRB02KT 9999 BKN020 
     PROB40 
     TEMPO 0603/0612 BKN014
       
LEAL 060330Z 31003KT CAVOK 11/09 Q1020 NOSIG
TAF LEAL 052300Z 0600/0624 35006KT 9999 FEW020 TX17/0613Z TN10/0606Z 
     TEMPO 0610/0618 07010KT
       
LEAM 060330Z AUTO 03004KT 320V120 CAVOK 15/08 Q1018
TAF LEAM 060200Z 0603/0703 34009KT 9999 FEW040 TX18/0614Z TN12/0606Z 
     BECMG 0609/0611 06016KT 
     TEMPO 0611/0617 06022G34KT 
     BECMG 0618/0621 35008KT
       
LEAS 060330Z AUTO VRB01KT 9999 FEW028 08/06 Q1023
TAF LEAS 060200Z 0603/0703 22008KT 9999 SCT025 TX13/0614Z TN07/0605Z 
     PROB30 
     TEMPO 0603/0606 3000 BR 
     TEMPO 0612/0618 28010KT
       
LEMD 060330Z 35003KT 9999 SCT060 07/04 Q1022 NOSIG
TAF LEMD 052300Z 0600/0706 35007KT 9999 FEW025 SCT035 TX13/0615Z TN04/0606Z 
     PROB30 
     TEMPO 0600/0603 4900 BR 
     BECMG 0609/0611 VRB04KT
       
LEBL 060330Z 33006KT 9999 FEW055 11/09 Q1022 NOSIG
TAF LEBL 052300Z 0600/0624 33007KT 9999 FEW020 BKN030 TX17/0613Z TN09/0606Z
       
LEBB 060330Z AUTO 09003KT 050V120 1900 BR FEW001 06/06 Q1024
TAF LEBB 052300Z 0600/0624 11005KT CAVOK TX15/0613Z TN05/0606Z 
     TEMPO 0600/0609 3000 BR 
     PROB40 
     TEMPO 0603/0609 0600 BCFG VV001 
     PROB40 0612/0618 30010KT
       
LEBG 060330Z AUTO VRB02KT 0250 0150 R22/0700N R04/0125N FZFG VV001 M00/M00 Q1023
TAF AMD LEBG 060316Z 0603/0612 VRB04KT 9999 SCT012 BKN020 
     PROB40 
     TEMPO 0603/0611 1500 BR BKN005 
     PROB30 
     TEMPO 0603/0610 0150 FZFG VV001
       
LEBA 060330Z AUTO 08007KT 9999 NCD 08/06 Q1018
TAF LEBA 060200Z 0603/0612 08008KT CAVOK
       
TAF LEVS 051700Z 0518/0603 03010KT 9999 FEW025 SCT045
       
GCFV 060330Z AUTO 33010KT 9999 NCD 16/13 Q1013
TAF GCFV 060200Z 0603/0703 34013KT 9999 SCT030 TX21/0615Z TN16/0606Z 
     PROB40 
     TEMPO 0603/0615 RA
       
TAF LEGT 060200Z 0603/0612 03007KT 9999 FEW025 SCT035 
     PROB30 
     TEMPO 0603/0610 4900 BR BKN006
       
LEGE 060330Z 02003KT 320V030 9999 SCT050 10/07 Q1022
TAF LEGE 052300Z 0600/0624 02005KT 9999 SCT030 TX17/0613Z TN05/0606Z 
     PROB30 
     TEMPO 0622/0624 3000 BR BKN008
       
GCLP 060330Z 34014KT 9999 RA FEW030 BKN060 17/13 Q1014 NOSIG
TAF GCLP 060200Z 0603/0703 34015KT 9999 SCT030 TX21/0615Z TN16/0606Z 
     BECMG 0607/0609 36025KT 
     PROB40 
     TEMPO 0607/0619 36022G32KT 
     PROB30 
     TEMPO 0603/0615 RA
       
LEGR 060330Z AUTO 00000KT 9999 NCD 04/03 Q1018
TAF LEGR 060200Z 0603/0703 VRB02KT 9999 FEW050 TX16/0615Z TN03/0607Z
       
GCHI 060330Z AUTO 02020G31KT 340V050 9000 FEW026 SCT033 19/14 Q1016
TAF GCHI 060200Z 0603/0703 01018KT 9999 SCT030 TX22/0615Z TN18/0606Z 
     PROB40 
     TEMPO 0603/0618 36018G30KT 
     PROB30 
     TEMPO 0606/0612 DZRA
       
LEIB 052300Z 35004KT 9999 FEW030 12/11 Q1021 NOSIG
TAF LEIB 060200Z 0603/0703 VRB04KT 9999 FEW020 TX17/0613Z TN09/0606Z 
     PROB40 
     TEMPO 0610/0618 06010KT 
     PROB30 
     TEMPO 0622/0703 3000 BR
       
LEJR 060330Z AUTO VRB02KT 9999 SCT050 09/08 Q1016
TAF LEJR 052300Z 0600/0624 03006KT CAVOK TX20/0615Z TN06/0607Z
       
GCGM 060330Z AUTO VRB06KT 9999 SCT041 BKN049 OVC055 18/11 Q1016 RMK R09/VRB07G17KT ARP/11003KT 050V170
TAF GCGM 060200Z 0603/0703 03015KT 9999 SCT045 TX22/0615Z TN17/0606Z 
     TEMPO 0603/0703 VRB05G25KT 
     PROB30 
     TEMPO 0603/0624 02015G27KT
       
GCLA 060330Z AUTO 01021KT 9999 NCD 18/13 Q1017
TAF GCLA 060200Z 0603/0703 36018KT 9999 BKN050 TX21/0615Z TN18/0606Z 
     PROB40 
     TEMPO 0603/0618 36018G28KT 
     PROB30 
     TEMPO 0606/0609 RA
       
GCRR 060330Z AUTO 34008KT 9999 NCD 16/13 Q1013
TAF GCRR 060200Z 0603/0703 36013KT 9999 SCT030 TX22/0615Z TN15/0606Z 
     PROB40 
     TEMPO 0603/0612 RA
       
LELN 060330Z AUTO 35003KT 330V030 9999 NCD 01/01 Q1023
TAF LELN 060200Z 0603/0612 VRB04KT 9999 FEW025 SCT035
       
LEMG 060330Z 29008KT CAVOK 10/10 Q1017 NOSIG
TAF LEMG 052300Z 0600/0624 29008KT 9999 FEW025 TX18/0612Z TN11/0606Z 
     BECMG 0611/0613 13008KT 
     BECMG 0618/0621 29006KT
       
GEML 060330Z AUTO 07006KT 9999 NCD 16/14 Q1015
TAF GEML 060200Z 0603/0703 07006KT 9999 SCT020 TX19/0614Z TN14/0606Z 
     PROB40 
     TEMPO 0603/0606 BKN010 
     PROB40 
     TEMPO 0622/0703 4000 RA BKN010
       
LEMH 060330Z AUTO 30004KT CAVOK 11/10 Q1021
TAF LEMH 060200Z 0603/0703 VRB04KT 9999 FEW020 TX16/0613Z TN09/0606Z 
     PROB40 
     TEMPO 0603/0610 3000 BR BKN009 
     PROB40 
     TEMPO 0622/0703 3000 BR BKN009
       
LEMO 060300Z 05006KT CAVOK 09/08 Q1017 NOSIG
TAF LEMO 060200Z 0603/0612 05008KT CAVOK
       
LEPP 060330Z AUTO 11002KT 9000 NCD 01/01 Q1023
TAF LEPP 060200Z 0603/0703 VRB05KT CAVOK TX13/0615Z TN01/0606Z 
     PROB40 
     TEMPO 0603/0609 3000 BR 
     PROB30 
     TEMPO 0603/0609 0350 FG VV001 
     PROB40 
     TEMPO 0700/0703 3000 BR
       
LERS 060330Z AUTO VRB02KT 9999 OVC031 11/11 Q1022
TAF LERS 060200Z 0603/0703 VRB05KT 9999 SCT040 TX16/0613Z TN06/0606Z
       
LERT 060300Z 04008KT 360V060 CAVOK 10/08 Q1016 NOSIG
TAF LERT 060200Z 0603/0612 03008KT CAVOK
       
LESA 060330Z AUTO 11003KT 4000 BR NCD M00/M01 Q1022
TAF AMD LESA 060316Z 0603/0624 08007KT 9999 SCT015 SCT030 TX12/0615Z TN00/0606Z 
     TEMPO 0603/0612 1200 BCFG BKN004 
     PROB40 
     TEMPO 0603/0611 0150 FZFG VV001 
     TEMPO 0622/0624 1500 BCFG BKN005 
     PROB40 
     TEMPO 0623/0624 0250 FZFG VV001
       
LESO 060330Z AUTO VRB02KT 9999 NCD 06/06 Q1024
TAF LESO 052300Z 0600/0624 VRB05KT 9999 SCT015 TX14/0613Z TN05/0606Z
       
LEXJ 060330Z AUTO VRB01KT 1900 0500W BR BCFG NCD 06/06 Q1023
TAF LEXJ 060200Z 0603/0703 VRB03KT 8000 FEW010 TX13/0615Z TN05/0605Z 
     TEMPO 0603/0609 3000 BR 
     PROB40 
     TEMPO 0603/0609 0600 BCFG 
     TEMPO 0612/0618 27010KT
       
LEST 060330Z 13006KT 7000 VCFG NSC 06/06 Q1022 BECMG 1500 BCFG
TAF LEST 052300Z 0600/0624 VRB05KT 9999 SCT025 TX12/0615Z TN04/0606Z 
     TEMPO 0600/0609 1500 BCFG BR BKN005 
     PROB40 
     TEMPO 0603/0609 0600 FG VV001
       
TAF LESU 060200Z 0603/0703 VRB03KT 9999 SCT060 TX15/0614Z TNM01/0606Z
       
LEZL 060330Z 07003KT CAVOK 10/07 Q1017 NOSIG
TAF LEZL 060200Z 0603/0703 06008KT CAVOK TX19/0615Z TN08/0607Z
       
LESB 060330Z AUTO 01004KT CAVOK 10/09 Q1022
TAF LEBZ 052300Z 0600/0624 07006KT CAVOK TX17/0615Z TN06/0607Z
       
GCXO 060330Z AUTO 31015G25KT 280V350 9000 BKN002 13/12 Q1016
TAF GCXO 060200Z 0603/0703 32018KT 9999 BKN015 TX15/0615Z TN12/0606Z 
     PROB40 
     TEMPO 0603/0619 32018G28KT 
     TEMPO 0603/0609 3000 RA BKN009 
     PROB30 
     TEMPO 0612/0618 4500 DZ BKN007
       
GCTS 060330Z 33009KT 9999 SCT090 18/11 Q1014 NOSIG
TAF GCTS 060200Z 0603/0703 32008KT 9999 SCT050 TX24/0615Z TN16/0606Z 
     TEMPO 0612/0618 23010KT
       
LETO 060300Z 08005KT 050V110 9999 BKN058 08/06 Q1022 NOSIG
TAF LETO 052300Z 0600/0624 02010KT 9999 FEW025 SCT035 TX13/0615Z TN04/0606Z 
     PROB30 
     TEMPO 0600/0603 4900 BR 
     BECMG 0609/0611 VRB04KT
       
LEVC 060330Z 29003KT 260V330 9999 SCT017 BKN025 11/11 Q1022 NOSIG
TAF LEVC 052300Z 0600/0624 30005KT 9999 SCT040 TX15/0613Z TN07/0606Z 
     PROB40 
     TEMPO 0610/0618 02010KT
       
LEVD 060330Z AUTO 08006KT 7000 NCD 01/01 Q1022
TAF LEVD 052300Z 0600/0624 06015KT 9999 SCT015 SCT030 TX11/0615Z TN01/0606Z 
     TEMPO 0600/0608 06005KT 
     BECMG 0608/0610 VRB04KT 
     TEMPO 0600/0612 1200 BCFG BKN004 
     PROB40 
     TEMPO 0600/0612 0150 FG VV001 
     TEMPO 0622/0624 1500 BCFG BKN005 
     PROB40 
     TEMPO 0623/0624 0250 FG VV001
       
LEVX 060330Z 20007KT 170V230 CAVOK 07/07 Q1022 NOSIG
TAF LEVX 052300Z 0600/0624 22005KT CAVOK TX15/0614Z TN04/0606Z 
     PROB40 
     TEMPO 0615/0618 29010KT
       
LEVT 060330Z 21001KT 1000 R04/1200U R22/0800U BCFG VV001 00/00 Q1024
TAF LEVT 052300Z 0600/0624 VRB05KT 9999 FEW015 TX13/0614Z TNM00/0603Z 
     TEMPO 0600/0610 1500 BCFG BKN003 
     TEMPO 0600/0610 0350 FG FZFG VV001 
     PROB40 
     TEMPO 0603/0610 0150 FG FZFG VV001
       
LEZG 060330Z 28007KT 9999 FEW035 BKN045 08/07 Q1023
TAF LEZG 052300Z 0600/0624 29008KT 9999 BKN050 TX13/0613Z TN05/0606Z 
     BECMG 0611/0613 09008KT 
     BECMG 0618/0620 27008KT